createdAt,value
2022-11-01T00:04:28.732Z,100733.80
2022-11-01T00:09:32.420Z,100725.60
2022-11-01T00:14:35.659Z,100734.40
2022-11-01T00:19:38.902Z,100727.80
2022-11-01T00:24:42.175Z,100725.20
2022-11-01T00:29:45.414Z,100718.20
2022-11-01T00:34:48.633Z,100722.00
2022-11-01T00:39:51.909Z,100718.20
2022-11-01T00:44:55.324Z,100717.60
2022-11-01T00:49:58.581Z,100719.80
2022-11-01T00:55:01.832Z,100716.80
2022-11-01T01:00:06.721Z,100713.60
2022-11-01T01:05:11.173Z,100713.20
2022-11-01T01:10:15.159Z,100712.00
2022-11-01T01:15:19.852Z,100707.60
2022-11-01T01:20:23.625Z,100703.20
2022-11-01T01:25:26.913Z,100697.40
2022-11-01T01:30:30.248Z,100693.20
2022-11-01T01:35:33.554Z,100696.40
2022-11-01T01:40:36.844Z,100685.80
2022-11-01T01:45:42.535Z,100687.40
2022-11-01T01:50:54.507Z,100691.40
2022-11-01T01:56:19.696Z,100683.80
2022-11-01T02:01:23.582Z,100675.00
2022-11-01T02:06:27.819Z,100668.60
2022-11-01T02:11:31.066Z,100666.60
2022-11-01T02:16:49.304Z,100665.60
2022-11-01T02:22:34.862Z,100659.40
2022-11-01T02:27:53.987Z,100653.40
2022-11-01T02:33:21.131Z,100645.60
2022-11-01T02:38:46.390Z,100635.80
2022-11-01T02:43:59.313Z,100626.60
2022-11-01T02:49:04.482Z,100620.40
2022-11-01T02:54:13.322Z,100622.20
2022-11-01T02:59:26.662Z,100626.20
2022-11-01T03:04:30.669Z,100619.60
2022-11-01T03:09:35.957Z,100627.20
2022-11-01T03:14:55.394Z,100640.60
2022-11-01T03:20:04.588Z,100640.20
2022-11-01T03:25:44.534Z,100638.60
2022-11-01T03:31:02.519Z,100640.40
2022-11-01T03:36:14.900Z,100635.60
2022-11-01T03:41:21.654Z,100630.00
2022-11-01T03:46:24.913Z,100639.20
2022-11-01T03:51:28.317Z,100637.00
2022-11-01T03:56:31.874Z,100639.40
2022-11-01T04:01:35.946Z,100633.40
2022-11-01T04:06:39.418Z,100630.60
2022-11-01T04:11:43.752Z,100624.40
2022-11-01T04:17:05.704Z,100616.20
2022-11-01T04:22:09.297Z,100613.00
2022-11-01T04:27:12.671Z,100613.20
2022-11-01T04:32:15.939Z,100609.60
2022-11-01T04:37:19.254Z,100604.40
2022-11-01T04:42:22.564Z,100614.20
2022-11-01T04:47:25.800Z,100607.60
2022-11-01T04:52:29.189Z,100610.80
2022-11-01T04:57:38.989Z,100617.40
2022-11-01T05:02:42.367Z,100622.20
2022-11-01T05:07:46.196Z,100613.80
2022-11-01T05:12:49.501Z,100609.60
2022-11-01T05:17:53.128Z,100601.60
2022-11-01T05:23:05.013Z,100594.40
2022-11-01T05:28:14.191Z,100586.20
2022-11-01T05:33:17.459Z,100571.40
2022-11-01T05:38:20.802Z,100567.20
2022-11-01T05:43:24.047Z,100558.00
2022-11-01T05:48:27.324Z,100549.00
2022-11-01T05:53:30.597Z,100555.80
2022-11-01T05:58:33.830Z,100563.00
2022-11-01T06:03:37.571Z,100565.00
2022-11-01T06:08:41.186Z,100571.40
2022-11-01T06:13:44.492Z,100571.60
2022-11-01T06:18:48.040Z,100564.60
2022-11-01T06:23:51.319Z,100569.60
2022-11-01T06:28:54.569Z,100572.00
2022-11-01T06:33:58.050Z,100567.00
2022-11-01T06:39:01.295Z,100573.00
2022-11-01T06:44:04.727Z,100578.20
2022-11-01T06:49:08.025Z,100569.40
2022-11-01T06:54:11.442Z,100561.20
2022-11-01T06:59:16.757Z,100564.20
2022-11-01T07:04:21.456Z,100556.20
2022-11-01T07:09:24.922Z,100557.40
2022-11-01T07:14:28.225Z,100558.00
2022-11-01T07:19:31.538Z,100565.80
2022-11-01T07:24:34.849Z,100563.60
2022-11-01T07:29:40.724Z,100574.40
2022-11-01T07:34:44.324Z,100592.60
2022-11-01T07:39:47.649Z,100593.20
2022-11-01T07:44:50.963Z,100584.60
2022-11-01T07:49:54.287Z,100577.60
2022-11-01T07:54:57.896Z,100572.80
2022-11-01T08:00:01.204Z,100557.80
2022-11-01T08:05:05.452Z,100549.40
2022-11-01T08:10:11.748Z,100551.80
2022-11-01T08:15:15.671Z,100543.80
2022-11-01T08:20:19.059Z,100534.40
2022-11-01T08:25:24.231Z,100519.60
2022-11-01T08:30:27.525Z,100498.40
2022-11-01T08:35:33.128Z,100490.20
2022-11-01T08:40:36.442Z,100489.80
2022-11-01T08:45:40.565Z,100470.80
2022-11-01T08:50:44.050Z,100463.40
2022-11-01T09:00:51.670Z,100448.20
2022-11-01T09:05:57.567Z,100444.40
2022-11-01T09:11:00.977Z,100405.80
2022-11-01T09:16:08.739Z,100474.20
2022-11-01T09:21:12.205Z,100452.60
2022-11-01T09:26:15.484Z,100432.40
2022-11-01T09:31:21.281Z,100489.20
2022-11-01T09:36:25.710Z,100464.80
2022-11-01T09:41:47.472Z,100448.20
2022-11-01T09:47:02.343Z,100469.80
2022-11-01T09:52:07.643Z,100440.60
2022-11-01T09:57:44.109Z,100426.80
2022-11-01T10:03:38.617Z,100449.20
2022-11-01T10:08:48.289Z,100435.40
2022-11-01T10:14:26.827Z,100424.60
2022-11-01T10:19:34.123Z,100440.60
2022-11-01T10:24:56.047Z,100445.40
2022-11-01T10:30:04.711Z,100434.00
2022-11-01T10:35:33.819Z,100420.80
2022-11-01T10:40:45.938Z,100427.80
2022-11-01T10:45:55.491Z,100430.00
2022-11-01T10:51:03.967Z,100457.60
2022-11-01T10:56:12.676Z,100483.60
2022-11-01T11:01:26.801Z,100457.80
2022-11-01T11:06:40.181Z,100442.60
2022-11-01T11:11:44.618Z,100449.40
2022-11-01T11:16:58.286Z,100470.00
2022-11-01T11:22:07.417Z,100449.60
2022-11-01T11:27:23.881Z,100470.00
2022-11-01T11:32:39.642Z,100463.40
2022-11-01T11:38:01.898Z,100494.00
2022-11-01T11:43:26.282Z,100478.60
2022-11-01T11:48:29.921Z,100471.00
2022-11-01T11:53:34.355Z,100463.40
2022-11-01T11:58:52.374Z,100461.00
2022-11-01T12:04:16.311Z,100454.20
2022-11-01T12:09:43.991Z,100464.20
2022-11-01T12:14:47.443Z,100453.60
2022-11-01T12:20:20.312Z,100458.60
2022-11-01T12:25:25.373Z,100466.20
2022-11-01T12:30:34.324Z,100472.40
2022-11-01T12:35:44.171Z,100465.00
2022-11-01T12:40:52.705Z,100458.00
2022-11-01T12:46:21.252Z,100460.20
2022-11-01T12:51:30.560Z,100468.40
2022-11-01T12:56:34.048Z,100459.80
2022-11-01T13:01:58.315Z,100456.80
2022-11-01T13:07:36.825Z,100463.20
2022-11-01T13:13:07.467Z,100445.20
2022-11-01T13:18:47.646Z,100439.80
2022-11-01T13:24:11.853Z,100434.40
2022-11-01T13:29:35.741Z,100436.20
2022-11-01T13:35:18.879Z,100455.00
2022-11-01T13:40:35.610Z,100460.20
2022-11-01T13:46:24.285Z,100463.00
2022-11-01T13:51:50.841Z,100460.60
2022-11-01T13:57:18.755Z,100465.60
2022-11-01T14:02:28.239Z,100464.20
2022-11-01T14:07:37.962Z,100463.40
2022-11-01T14:12:48.192Z,100454.00
2022-11-01T14:18:07.551Z,100459.60
2022-11-01T14:23:29.357Z,100463.80
2022-11-01T14:28:32.639Z,100468.80
2022-11-01T14:33:36.587Z,100451.00
2022-11-01T14:38:57.416Z,100456.20
2022-11-01T14:44:12.125Z,100452.80
2022-11-01T14:49:29.096Z,100464.20
2022-11-01T14:54:44.423Z,100451.80
2022-11-01T14:59:47.936Z,100440.60
2022-11-01T15:04:59.315Z,100427.00
2022-11-01T15:10:13.305Z,100438.40
2022-11-01T15:15:31.662Z,100444.60
2022-11-01T15:20:43.271Z,100447.20
2022-11-01T15:25:54.992Z,100441.20
2022-11-01T15:31:03.024Z,100438.00
2022-11-01T15:36:20.242Z,100437.00
2022-11-01T15:41:35.428Z,100438.60
2022-11-01T15:46:43.549Z,100426.20
2022-11-01T15:52:02.994Z,100436.20
2022-11-01T15:57:20.448Z,100432.80
2022-11-01T16:02:33.723Z,100426.60
2022-11-01T16:07:37.281Z,100437.80
2022-11-01T16:12:45.576Z,100441.60
2022-11-01T16:17:49.623Z,100443.60
2022-11-01T16:22:54.258Z,100448.20
2022-11-01T16:28:32.095Z,100448.00
2022-11-01T16:33:46.006Z,100446.40
2022-11-01T16:38:54.862Z,100430.60
2022-11-01T16:44:01.255Z,100419.80
2022-11-01T16:49:25.184Z,100425.60
2022-11-01T16:54:28.861Z,100436.20
2022-11-01T16:59:39.375Z,100424.00
2022-11-01T17:04:45.323Z,100433.80
2022-11-01T17:09:48.753Z,100422.00
2022-11-01T17:14:52.793Z,100431.20
2022-11-01T17:20:04.325Z,100429.20
2022-11-01T17:25:15.623Z,100439.00
2022-11-01T17:30:21.231Z,100442.00
2022-11-01T17:35:26.759Z,100442.60
2022-11-01T17:40:32.564Z,100439.40
2022-11-01T17:45:37.251Z,100445.00
2022-11-01T17:50:41.755Z,100445.60
2022-11-01T17:55:46.900Z,100446.80
2022-11-01T18:00:50.265Z,100441.00
2022-11-01T18:05:59.231Z,100445.40
2022-11-01T18:11:57.051Z,100451.40
2022-11-01T18:17:40.605Z,100463.20
2022-11-01T18:22:53.437Z,100455.80
2022-11-01T18:28:01.515Z,100466.00
2022-11-01T18:33:31.703Z,100464.40
2022-11-01T18:39:27.204Z,100467.40
2022-11-01T18:44:30.755Z,100460.40
2022-11-01T18:49:34.272Z,100460.60
2022-11-01T18:54:49.994Z,100456.20
2022-11-01T18:59:56.431Z,100456.00
2022-11-01T19:05:20.250Z,100455.00
2022-11-01T19:10:24.693Z,100449.80
2022-11-01T19:15:31.494Z,100460.40
2022-11-01T19:20:45.354Z,100463.60
2022-11-01T19:25:49.689Z,100464.00
2022-11-01T19:30:56.796Z,100458.20
2022-11-01T19:36:10.333Z,100458.80
2022-11-01T19:41:29.179Z,100456.40
2022-11-01T19:46:33.645Z,100459.80
2022-11-01T19:51:37.261Z,100467.60
2022-11-01T19:56:41.271Z,100471.80
2022-11-01T20:01:46.417Z,100468.60
2022-11-01T20:06:56.210Z,100456.60
2022-11-01T20:11:59.624Z,100462.00
2022-11-01T20:17:03.346Z,100465.80
2022-11-01T20:22:07.187Z,100465.60
2022-11-01T20:27:10.508Z,100460.00
2022-11-01T20:32:14.096Z,100450.60
2022-11-01T20:37:28.400Z,100456.80
2022-11-01T20:42:32.200Z,100451.40
2022-11-01T20:47:35.942Z,100460.60
2022-11-01T20:52:40.214Z,100460.20
2022-11-01T20:57:44.173Z,100470.80
2022-11-01T21:02:48.346Z,100466.40
2022-11-01T21:08:10.252Z,100471.20
2022-11-01T21:13:35.730Z,100468.40
2022-11-01T21:18:46.005Z,100473.40
2022-11-01T21:23:49.570Z,100462.00
2022-11-01T21:28:58.823Z,100456.40
2022-11-01T21:34:11.363Z,100454.80
2022-11-01T21:39:31.074Z,100451.40
2022-11-01T21:44:43.428Z,100452.60
2022-11-01T21:49:47.538Z,100447.40
2022-11-01T21:54:52.966Z,100447.80
2022-11-01T21:59:56.227Z,100443.60
2022-11-01T22:05:00.057Z,100457.40
2022-11-01T22:10:04.079Z,100455.80
2022-11-01T22:15:08.650Z,100460.20
2022-11-01T22:20:12.291Z,100454.60
2022-11-01T22:25:15.563Z,100454.20
2022-11-01T22:30:19.010Z,100453.40
2022-11-01T22:35:22.321Z,100457.00
2022-11-01T22:40:25.837Z,100454.20
2022-11-01T22:45:29.078Z,100454.80
2022-11-01T22:50:32.459Z,100469.40
2022-11-01T22:55:39.730Z,100469.00
2022-11-01T23:00:46.486Z,100465.80
2022-11-01T23:05:57.953Z,100463.20
2022-11-01T23:11:03.319Z,100469.80
2022-11-01T23:16:42.802Z,100459.20
2022-11-01T23:21:46.190Z,100465.00
2022-11-01T23:26:49.607Z,100465.60
2022-11-01T23:31:52.949Z,100460.80
2022-11-01T23:36:56.317Z,100458.20
2022-11-01T23:41:59.671Z,100462.80
2022-11-01T23:47:24.866Z,100465.00
2022-11-01T23:52:42.357Z,100474.20
2022-11-01T23:57:46.249Z,100466.80
